Terminal Aerodrome Forecast
Issued by NWS

Home | Current Version | Previous Version | Text Only | Print | Product List | Glossary On
Versions: 1 2 3 4 5 6 7 8 9 10 11 12 13 14 15 16 17 18 19
000
FTUS46 KEKA 011144
TAFCEC
TAF
KCEC 011144Z 0112/0212 12003KT 6SM BR FEW006 SCT250
     FM011300 VRB03KT 6SM BR SCT004 SCT250
      TEMPO 0114/0116 4SM BR BKN004
     FM011700 24006KT 6SM HZ SCT007
     FM012200 32008KT P6SM SCT010 SCT250
     FM020200 34006KT 6SM BR SCT008 BKN250
     FM020600 16004KT 4SM BR BKN005 BKN250
      TEMPO 0208/0212 2SM BR OVC003=

USA.gov is the U.S. government's official web portal to all federal, state and local government web resources and services.